Time,TemperatureF,DewpointF,PressureIn,WindDirection,WindDirectionDegrees,WindSpeedMPH,WindSpeedGustMPH,Humidity,HourlyPrecipIn,Conditions,Clouds,dailyrainin,SolarRadiationWatts/m^2,SoftwareType,DateUTC
2013-09-13 00:02:00,65.0,41.0,-100.00,NW,306,0.0,0.0,41,0.00,,,0.00,0.000000,,2013-09-13 07:02:00,
2013-09-13 00:11:00,65.0,41.0,-100.00,NW,306,0.0,0.0,41,0.00,,,0.00,0.000000,,2013-09-13 07:11:00,
2013-09-13 00:22:00,65.0,41.0,-100.00,NW,306,0.0,0.0,41,0.00,,,0.00,0.000000,,2013-09-13 07:22:00,
2013-09-13 00:52:00,64.0,40.0,-100.00,ENE,69,2.0,8.0,41,0.00,,,0.00,0.000000,,2013-09-13 07:52:00,
2013-09-13 01:02:00,64.0,40.0,-100.00,ENE,69,2.0,8.0,41,0.00,,,0.00,0.000000,,2013-09-13 08:02:00,
2013-09-13 01:11:00,64.0,40.0,-100.00,ENE,69,2.0,8.0,41,0.00,,,0.00,0.000000,,2013-09-13 08:11:00,
2013-09-13 01:22:00,64.0,40.0,-100.00,ENE,69,2.0,8.0,41,0.00,,,0.00,0.000000,,2013-09-13 08:22:00,
2013-09-13 01:52:00,61.0,40.0,-100.00,West,277,4.0,7.0,46,0.00,,,0.00,0.000000,,2013-09-13 08:52:00,
2013-09-13 02:02:00,61.0,40.0,-100.00,West,277,4.0,7.0,46,0.00,,,0.00,0.000000,,2013-09-13 09:02:00,
2013-09-13 02:11:00,61.0,40.0,-100.00,West,277,4.0,7.0,46,0.00,,,0.00,0.000000,,2013-09-13 09:11:00,
2013-09-13 02:21:00,61.0,40.0,-100.00,West,277,4.0,7.0,46,0.00,,,0.00,0.000000,,2013-09-13 09:21:00,
2013-09-13 02:54:00,60.0,45.0,-100.00,West,277,3.0,9.0,58,0.00,,,0.00,0.000000,,2013-09-13 09:54:00,
2013-09-13 03:03:00,60.0,45.0,-100.00,West,277,3.0,9.0,58,0.00,,,0.00,0.000000,,2013-09-13 10:03:00,
2013-09-13 03:12:00,60.0,45.0,-100.00,West,277,3.0,9.0,58,0.00,,,0.00,0.000000,,2013-09-13 10:12:00,
2013-09-13 03:22:00,60.0,45.0,-100.00,West,277,3.0,9.0,58,0.00,,,0.00,0.000000,,2013-09-13 10:22:00,
2013-09-13 03:53:00,59.0,46.0,-100.00,West,277,3.0,6.0,63,0.00,,,0.00,0.000000,,2013-09-13 10:53:00,
2013-09-13 04:03:00,59.0,46.0,-100.00,West,277,3.0,6.0,63,0.00,,,0.00,0.000000,,2013-09-13 11:03:00,
2013-09-13 04:12:00,59.0,46.0,-100.00,West,277,3.0,6.0,63,0.00,,,0.00,0.000000,,2013-09-13 11:12:00,
2013-09-13 04:22:00,59.0,46.0,-100.00,West,277,3.0,6.0,63,0.00,,,0.00,0.000000,,2013-09-13 11:22:00,
2013-09-13 04:52:00,61.0,48.0,-100.00,West,280,1.0,8.0,62,0.00,,,0.00,0.000000,,2013-09-13 11:52:00,
2013-09-13 05:01:00,61.0,48.0,-100.00,West,280,1.0,8.0,62,0.00,,,0.00,0.000000,,2013-09-13 12:01:00,
2013-09-13 05:11:00,61.0,48.0,-100.00,West,280,1.0,8.0,62,0.00,,,0.00,0.000000,,2013-09-13 12:11:00,
2013-09-13 05:21:00,61.0,48.0,-100.00,West,280,1.0,8.0,62,0.00,,,0.00,0.000000,,2013-09-13 12:21:00,
2013-09-13 05:52:00,60.0,47.0,-100.00,West,279,0.0,5.0,63,0.00,,,0.00,0.000000,,2013-09-13 12:52:00,
2013-09-13 06:02:00,60.0,47.0,-100.00,West,279,0.0,5.0,63,0.00,,,0.00,0.000000,,2013-09-13 13:02:00,
2013-09-13 06:11:00,60.0,47.0,-100.00,West,279,0.0,5.0,63,0.00,,,0.00,0.000000,,2013-09-13 13:11:00,
2013-09-13 06:21:00,60.0,47.0,-100.00,West,279,0.0,5.0,63,0.00,,,0.00,0.000000,,2013-09-13 13:21:00,
2013-09-13 06:52:00,59.0,47.0,-100.00,NE,35,0.0,4.0,64,0.00,,,0.00,0.000000,,2013-09-13 13:52:00,
2013-09-13 07:02:00,59.0,47.0,-100.00,NE,35,0.0,4.0,64,0.00,,,0.00,0.000000,,2013-09-13 14:02:00,
2013-09-13 07:11:00,59.0,47.0,-100.00,NE,35,0.0,4.0,64,0.00,,,0.00,0.000000,,2013-09-13 14:11:00,
2013-09-13 07:21:00,59.0,47.0,-100.00,NE,35,0.0,4.0,64,0.00,,,0.00,0.000000,,2013-09-13 14:21:00,
2013-09-13 07:52:00,61.0,47.0,-100.00,West,279,0.0,3.0,60,0.00,,,0.00,14.000000,,2013-09-13 14:52:00,
2013-09-13 08:02:00,61.0,47.0,-100.00,West,279,0.0,3.0,60,0.00,,,0.00,14.000000,,2013-09-13 15:02:00,
2013-09-13 08:11:00,61.0,47.0,-100.00,West,279,0.0,3.0,60,0.00,,,0.00,14.000000,,2013-09-13 15:11:00,
2013-09-13 08:21:00,61.0,47.0,-100.00,West,279,0.0,3.0,60,0.00,,,0.00,14.000000,,2013-09-13 15:21:00,
2013-09-13 08:53:00,68.0,49.0,-100.00,West,277,0.0,6.0,50,0.00,,,0.00,110.000000,,2013-09-13 15:53:00,
2013-09-13 09:03:00,68.0,49.0,-100.00,West,277,0.0,6.0,50,0.00,,,0.00,110.000000,,2013-09-13 16:03:00,
2013-09-13 09:54:00,73.0,48.0,-100.00,WSW,238,0.0,4.0,41,0.00,,,0.00,415.000000,,2013-09-13 16:54:00,
2013-09-13 10:04:00,73.0,48.0,-100.00,WSW,238,0.0,4.0,41,0.00,,,0.00,415.000000,,2013-09-13 17:04:00,
2013-09-13 10:13:00,73.0,48.0,-100.00,WSW,238,0.0,4.0,41,0.00,,,0.00,415.000000,,2013-09-13 17:13:00,
2013-09-13 14:54:00,77.0,43.0,-100.00,SE,134,2.0,14.0,30,0.00,,,0.00,408.000000,,2013-09-13 21:54:00,
2013-09-13 15:04:00,77.0,43.0,-100.00,SE,134,2.0,14.0,30,0.00,,,0.00,408.000000,,2013-09-13 22:04:00,
2013-09-13 15:13:00,77.0,43.0,-100.00,SE,134,2.0,14.0,30,0.00,,,0.00,408.000000,,2013-09-13 22:13:00,
2013-09-13 15:24:00,77.0,43.0,-100.00,SE,134,2.0,14.0,30,0.00,,,0.00,408.000000,,2013-09-13 22:24:00,
2013-09-13 16:52:00,81.0,43.0,-100.00,ESE,123,3.0,9.0,26,0.00,,,0.00,618.000000,,2013-09-13 23:52:00,
2013-09-13 17:01:00,81.0,43.0,-100.00,ESE,123,3.0,9.0,26,0.00,,,0.00,618.000000,,2013-09-14 00:01:00,
2013-09-13 17:11:00,81.0,43.0,-100.00,ESE,123,3.0,9.0,26,0.00,,,0.00,618.000000,,2013-09-14 00:11:00,
2013-09-13 17:22:00,81.0,43.0,-100.00,ESE,123,3.0,9.0,26,0.00,,,0.00,618.000000,,2013-09-14 00:22:00,
2013-09-13 17:52:00,77.0,42.0,-100.00,WNW,303,1.0,10.0,29,0.00,,,0.00,399.000000,,2013-09-14 00:52:00,
2013-09-13 18:02:00,77.0,42.0,-100.00,WNW,303,1.0,10.0,29,0.00,,,0.00,399.000000,,2013-09-14 01:02:00,
2013-09-13 18:11:00,77.0,42.0,-100.00,WNW,303,1.0,10.0,29,0.00,,,0.00,399.000000,,2013-09-14 01:11:00,
2013-09-13 18:21:00,77.0,42.0,-100.00,WNW,303,1.0,10.0,29,0.00,,,0.00,399.000000,,2013-09-14 01:21:00,
2013-09-13 18:52:00,73.0,43.0,-100.00,NW,321,0.0,12.0,34,0.00,,,0.00,84.000000,,2013-09-14 01:52:00,
2013-09-13 19:02:00,73.0,43.0,-100.00,NW,321,0.0,12.0,34,0.00,,,0.00,84.000000,,2013-09-14 02:02:00,
2013-09-13 19:12:00,73.0,43.0,-100.00,NW,321,0.0,12.0,34,0.00,,,0.00,84.000000,,2013-09-14 02:12:00,
2013-09-13 19:22:00,73.0,43.0,-100.00,NW,321,0.0,12.0,34,0.00,,,0.00,84.000000,,2013-09-14 02:22:00,
2013-09-13 19:52:00,69.0,41.0,-100.00,NW,315,0.0,4.0,36,0.00,,,0.00,10.000000,,2013-09-14 02:52:00,
2013-09-13 20:02:00,69.0,41.0,-100.00,NW,315,0.0,4.0,36,0.00,,,0.00,10.000000,,2013-09-14 03:02:00,
2013-09-13 20:11:00,69.0,41.0,-100.00,NW,315,0.0,4.0,36,0.00,,,0.00,10.000000,,2013-09-14 03:11:00,
2013-09-13 20:22:00,69.0,41.0,-100.00,NW,315,0.0,4.0,36,0.00,,,0.00,10.000000,,2013-09-14 03:22:00,
2013-09-13 20:55:00,66.0,40.0,-100.00,NNW,332,0.0,3.0,39,0.00,,,0.00,0.000000,,2013-09-14 03:55:00,
2013-09-13 21:04:00,66.0,40.0,-100.00,NNW,332,0.0,3.0,39,0.00,,,0.00,0.000000,,2013-09-14 04:04:00,
2013-09-13 21:14:00,66.0,40.0,-100.00,NNW,332,0.0,3.0,39,0.00,,,0.00,0.000000,,2013-09-14 04:14:00,
2013-09-13 21:24:00,66.0,40.0,-100.00,NNW,332,0.0,3.0,39,0.00,,,0.00,0.000000,,2013-09-14 04:24:00,
2013-09-13 21:54:00,64.0,41.0,-100.00,ENE,78,0.0,4.0,43,0.00,,,0.00,0.000000,,2013-09-14 04:54:00,
2013-09-13 22:03:00,64.0,41.0,-100.00,ENE,78,0.0,4.0,43,0.00,,,0.00,0.000000,,2013-09-14 05:03:00,
2013-09-13 22:13:00,64.0,41.0,-100.00,ENE,78,0.0,4.0,43,0.00,,,0.00,0.000000,,2013-09-14 05:13:00,
2013-09-13 22:22:00,64.0,41.0,-100.00,ENE,78,0.0,4.0,43,0.00,,,0.00,0.000000,,2013-09-14 05:22:00,
2013-09-13 22:52:00,61.0,40.0,-100.00,ENE,78,0.0,3.0,46,0.00,,,0.00,0.000000,,2013-09-14 05:52:00,
2013-09-13 23:02:00,61.0,40.0,-100.00,ENE,78,0.0,3.0,46,0.00,,,0.00,0.000000,,2013-09-14 06:02:00,
2013-09-13 23:12:00,61.0,40.0,-100.00,ENE,78,0.0,3.0,46,0.00,,,0.00,0.000000,,2013-09-14 06:12:00,
2013-09-13 23:21:00,61.0,40.0,-100.00,ENE,78,0.0,3.0,46,0.00,,,0.00,0.000000,,2013-09-14 06:21:00,
2013-09-13 23:52:00,61.0,41.0,-100.00,West,278,0.0,3.0,47,0.00,,,0.00,0.000000,,2013-09-14 06:52:00,